sensor_id;sensor_type;location;lat;lon;timestamp;P1;durP1;ratioP1;P2;durP2;ratioP2
21120;SDS011;12519;43.318;21.898;2023-05-10T00:00:12;3.0;;;2.0;;
21120;SDS011;12519;43.318;21.898;2023-05-10T00:04:50;3.0;;;2.0;;
21120;SDS011;12519;43.318;21.898;2023-05-10T00:09:27;3.0;;;2.0;;
21120;SDS011;12519;43.318;21.898;2023-05-10T00:14:03;3.0;;;2.0;;
21120;SDS011;12519;43.318;21.898;2023-05-10T00:18:40;3.0;;;2.0;;
21120;SDS011;12519;43.318;21.898;2023-05-10T00:23:17;3.0;;;2.0;;
21120;SDS011;12519;43.318;21.898;2023-05-10T00:27:54;3.0;;;2.0;;
21120;SDS011;12519;43.318;21.898;2023-05-10T00:32:31;3.0;;;2.0;;
21120;SDS011;12519;43.318;21.898;2023-05-10T00:37:08;3.0;;;2.0;;
21120;SDS011;12519;43.318;21.898;2023-05-10T00:41:45;2.0;;;2.0;;
21120;SDS011;12519;43.318;21.898;2023-05-10T00:46:22;2.0;;;2.0;;
21120;SDS011;12519;43.318;21.898;2023-05-10T00:51:02;2.0;;;2.0;;
21120;SDS011;12519;43.318;21.898;2023-05-10T00:55:40;2.0;;;2.0;;
21120;SDS011;12519;43.318;21.898;2023-05-10T01:00:20;2.0;;;2.0;;
21120;SDS011;12519;43.318;21.898;2023-05-10T01:04:58;2.0;;;2.0;;
21120;SDS011;12519;43.318;21.898;2023-05-10T01:09:39;2.0;;;2.0;;
21120;SDS011;12519;43.318;21.898;2023-05-10T01:14:18;2.0;;;2.0;;
21120;SDS011;12519;43.318;21.898;2023-05-10T01:18:57;2.0;;;2.0;;
21120;SDS011;12519;43.318;21.898;2023-05-10T01:24:06;2.0;;;2.0;;
21120;SDS011;12519;43.318;21.898;2023-05-10T01:30:35;2.0;;;2.0;;
21120;SDS011;12519;43.318;21.898;2023-05-10T01:36:05;2.0;;;2.0;;
21120;SDS011;12519;43.318;21.898;2023-05-10T01:41:17;2.0;;;2.0;;
21120;SDS011;12519;43.318;21.898;2023-05-10T01:46:32;2.0;;;2.0;;
21120;SDS011;12519;43.318;21.898;2023-05-10T01:51:22;1.0;;;1.0;;
21120;SDS011;12519;43.318;21.898;2023-05-10T01:56:25;1.0;;;1.0;;
21120;SDS011;12519;43.318;21.898;2023-05-10T02:01:13;2.0;;;2.0;;
21120;SDS011;12519;43.318;21.898;2023-05-10T02:06:01;2.0;;;2.0;;
21120;SDS011;12519;43.318;21.898;2023-05-10T02:10:52;2.0;;;2.0;;
21120;SDS011;12519;43.318;21.898;2023-05-10T02:15:38;2.0;;;2.0;;
21120;SDS011;12519;43.318;21.898;2023-05-10T02:20:26;2.0;;;2.0;;
21120;SDS011;12519;43.318;21.898;2023-05-10T02:25:11;2.0;;;2.0;;
21120;SDS011;12519;43.318;21.898;2023-05-10T02:29:53;2.0;;;2.0;;
21120;SDS011;12519;43.318;21.898;2023-05-10T02:34:33;2.0;;;2.0;;
21120;SDS011;12519;43.318;21.898;2023-05-10T02:39:13;2.0;;;2.0;;
21120;SDS011;12519;43.318;21.898;2023-05-10T02:43:59;2.0;;;2.0;;
21120;SDS011;12519;43.318;21.898;2023-05-10T02:48:43;2.0;;;2.0;;
21120;SDS011;12519;43.318;21.898;2023-05-10T02:53:25;2.0;;;1.0;;
21120;SDS011;12519;43.318;21.898;2023-05-10T02:58:11;2.0;;;1.0;;
21120;SDS011;12519;43.318;21.898;2023-05-10T03:02:48;2.0;;;2.0;;
21120;SDS011;12519;43.318;21.898;2023-05-10T03:07:24;2.0;;;2.0;;
21120;SDS011;12519;43.318;21.898;2023-05-10T03:12:11;2.0;;;2.0;;
21120;SDS011;12519;43.318;21.898;2023-05-10T03:17:47;2.0;;;2.0;;
21120;SDS011;12519;43.318;21.898;2023-05-10T03:22:50;2.0;;;2.0;;
21120;SDS011;12519;43.318;21.898;2023-05-10T03:28:04;2.0;;;2.0;;
21120;SDS011;12519;43.318;21.898;2023-05-10T03:32:44;2.0;;;2.0;;
21120;SDS011;12519;43.318;21.898;2023-05-10T03:37:20;2.0;;;2.0;;
21120;SDS011;12519;43.318;21.898;2023-05-10T03:41:57;4.0;;;2.0;;
21120;SDS011;12519;43.318;21.898;2023-05-10T03:46:34;4.0;;;2.0;;
21120;SDS011;12519;43.318;21.898;2023-05-10T03:51:10;7.0;;;3.0;;
21120;SDS011;12519;43.318;21.898;2023-05-10T03:55:46;7.0;;;3.0;;
21120;SDS011;12519;43.318;21.898;2023-05-10T04:00:23;5.0;;;2.0;;
21120;SDS011;12519;43.318;21.898;2023-05-10T04:05:00;5.0;;;2.0;;
21120;SDS011;12519;43.318;21.898;2023-05-10T04:09:36;5.0;;;2.0;;
21120;SDS011;12519;43.318;21.898;2023-05-10T04:14:13;3.0;;;2.0;;
21120;SDS011;12519;43.318;21.898;2023-05-10T04:18:49;3.0;;;2.0;;
21120;SDS011;12519;43.318;21.898;2023-05-10T04:23:26;3.0;;;2.0;;
21120;SDS011;12519;43.318;21.898;2023-05-10T04:28:04;3.0;;;2.0;;
21120;SDS011;12519;43.318;21.898;2023-05-10T04:32:40;3.0;;;3.0;;
21120;SDS011;12519;43.318;21.898;2023-05-10T04:37:17;3.0;;;3.0;;
21120;SDS011;12519;43.318;21.898;2023-05-10T04:41:54;3.0;;;3.0;;
21120;SDS011;12519;43.318;21.898;2023-05-10T04:46:31;3.0;;;3.0;;
21120;SDS011;12519;43.318;21.898;2023-05-10T04:51:08;3.0;;;3.0;;
21120;SDS011;12519;43.318;21.898;2023-05-10T04:55:44;3.0;;;3.0;;
21120;SDS011;12519;43.318;21.898;2023-05-10T05:00:21;3.0;;;3.0;;
21120;SDS011;12519;43.318;21.898;2023-05-10T05:04:57;4.0;;;3.0;;
21120;SDS011;12519;43.318;21.898;2023-05-10T05:09:33;4.0;;;3.0;;
21120;SDS011;12519;43.318;21.898;2023-05-10T05:14:10;4.0;;;3.0;;
21120;SDS011;12519;43.318;21.898;2023-05-10T05:18:46;4.0;;;3.0;;
21120;SDS011;12519;43.318;21.898;2023-05-10T05:23:22;4.0;;;4.0;;
21120;SDS011;12519;43.318;21.898;2023-05-10T05:27:58;4.0;;;4.0;;
21120;SDS011;12519;43.318;21.898;2023-05-10T05:32:35;4.0;;;4.0;;
21120;SDS011;12519;43.318;21.898;2023-05-10T05:37:13;4.0;;;4.0;;
21120;SDS011;12519;43.318;21.898;2023-05-10T05:41:52;4.0;;;4.0;;
21120;SDS011;12519;43.318;21.898;2023-05-10T05:46:28;4.0;;;4.0;;
21120;SDS011;12519;43.318;21.898;2023-05-10T05:51:05;4.0;;;4.0;;
21120;SDS011;12519;43.318;21.898;2023-05-10T05:55:51;4.0;;;4.0;;
21120;SDS011;12519;43.318;21.898;2023-05-10T06:00:34;4.0;;;4.0;;
21120;SDS011;12519;43.318;21.898;2023-05-10T06:05:11;4.0;;;4.0;;
21120;SDS011;12519;43.318;21.898;2023-05-10T06:09:47;4.0;;;4.0;;
21120;SDS011;12519;43.318;21.898;2023-05-10T06:14:24;5.0;;;5.0;;
21120;SDS011;12519;43.318;21.898;2023-05-10T06:19:01;5.0;;;5.0;;
21120;SDS011;12519;43.318;21.898;2023-05-10T06:23:39;6.0;;;4.0;;
21120;SDS011;12519;43.318;21.898;2023-05-10T06:28:15;6.0;;;4.0;;
21120;SDS011;12519;43.318;21.898;2023-05-10T06:32:51;7.0;;;4.0;;
21120;SDS011;12519;43.318;21.898;2023-05-10T06:37:29;7.0;;;4.0;;
21120;SDS011;12519;43.318;21.898;2023-05-10T06:42:05;6.0;;;4.0;;
21120;SDS011;12519;43.318;21.898;2023-05-10T06:46:42;6.0;;;4.0;;
21120;SDS011;12519;43.318;21.898;2023-05-10T06:51:18;5.0;;;4.0;;
21120;SDS011;12519;43.318;21.898;2023-05-10T06:55:54;5.0;;;4.0;;
21120;SDS011;12519;43.318;21.898;2023-05-10T07:00:31;5.0;;;4.0;;
21120;SDS011;12519;43.318;21.898;2023-05-10T07:05:08;5.0;;;4.0;;
21120;SDS011;12519;43.318;21.898;2023-05-10T07:09:46;5.0;;;4.0;;
21120;SDS011;12519;43.318;21.898;2023-05-10T07:14:23;5.0;;;5.0;;
21120;SDS011;12519;43.318;21.898;2023-05-10T07:18:59;5.0;;;5.0;;
21120;SDS011;12519;43.318;21.898;2023-05-10T07:23:36;6.0;;;5.0;;
21120;SDS011;12519;43.318;21.898;2023-05-10T07:28:13;6.0;;;5.0;;
21120;SDS011;12519;43.318;21.898;2023-05-10T07:32:51;8.0;;;5.0;;
21120;SDS011;12519;43.318;21.898;2023-05-10T07:37:28;8.0;;;5.0;;
21120;SDS011;12519;43.318;21.898;2023-05-10T07:42:05;7.0;;;6.0;;
21120;SDS011;12519;43.318;21.898;2023-05-10T07:46:42;7.0;;;6.0;;
21120;SDS011;12519;43.318;21.898;2023-05-10T07:51:18;6.0;;;6.0;;
21120;SDS011;12519;43.318;21.898;2023-05-10T07:55:57;6.0;;;6.0;;
21120;SDS011;12519;43.318;21.898;2023-05-10T08:00:35;6.0;;;6.0;;
21120;SDS011;12519;43.318;21.898;2023-05-10T08:05:12;8.0;;;6.0;;
21120;SDS011;12519;43.318;21.898;2023-05-10T08:09:48;8.0;;;6.0;;
21120;SDS011;12519;43.318;21.898;2023-05-10T08:14:25;10.0;;;5.0;;
21120;SDS011;12519;43.318;21.898;2023-05-10T08:19:04;10.0;;;5.0;;
21120;SDS011;12519;43.318;21.898;2023-05-10T08:23:41;8.0;;;6.0;;
21120;SDS011;12519;43.318;21.898;2023-05-10T08:28:18;8.0;;;6.0;;
21120;SDS011;12519;43.318;21.898;2023-05-10T08:32:55;6.0;;;6.0;;
21120;SDS011;12519;43.318;21.898;2023-05-10T08:37:32;6.0;;;6.0;;
21120;SDS011;12519;43.318;21.898;2023-05-10T08:42:09;6.0;;;6.0;;
21120;SDS011;12519;43.318;21.898;2023-05-10T08:46:55;6.0;;;6.0;;
21120;SDS011;12519;43.318;21.898;2023-05-10T08:51:51;6.0;;;5.0;;
21120;SDS011;12519;43.318;21.898;2023-05-10T08:56:39;6.0;;;5.0;;
21120;SDS011;12519;43.318;21.898;2023-05-10T09:01:19;7.0;;;6.0;;
21120;SDS011;12519;43.318;21.898;2023-05-10T09:06:02;7.0;;;6.0;;
21120;SDS011;12519;43.318;21.898;2023-05-10T09:10:41;7.0;;;6.0;;
21120;SDS011;12519;43.318;21.898;2023-05-10T09:15:22;8.0;;;7.0;;
21120;SDS011;12519;43.318;21.898;2023-05-10T09:20:01;8.0;;;7.0;;
21120;SDS011;12519;43.318;21.898;2023-05-10T09:24:43;10.0;;;7.0;;
21120;SDS011;12519;43.318;21.898;2023-05-10T09:29:19;10.0;;;7.0;;
21120;SDS011;12519;43.318;21.898;2023-05-10T09:33:56;11.0;;;7.0;;
21120;SDS011;12519;43.318;21.898;2023-05-10T09:38:45;11.0;;;7.0;;
21120;SDS011;12519;43.318;21.898;2023-05-10T09:43:27;9.0;;;6.0;;
21120;SDS011;12519;43.318;21.898;2023-05-10T09:48:13;9.0;;;6.0;;
21120;SDS011;12519;43.318;21.898;2023-05-10T09:52:53;7.0;;;6.0;;
21120;SDS011;12519;43.318;21.898;2023-05-10T09:57:38;7.0;;;6.0;;
21120;SDS011;12519;43.318;21.898;2023-05-10T10:02:16;8.0;;;6.0;;
21120;SDS011;12519;43.318;21.898;2023-05-10T10:07:03;8.0;;;6.0;;
21120;SDS011;12519;43.318;21.898;2023-05-10T10:11:40;8.0;;;7.0;;
21120;SDS011;12519;43.318;21.898;2023-05-10T10:16:18;8.0;;;7.0;;
21120;SDS011;12519;43.318;21.898;2023-05-10T10:20:57;8.0;;;7.0;;
21120;SDS011;12519;43.318;21.898;2023-05-10T10:25:35;6.0;;;6.0;;
21120;SDS011;12519;43.318;21.898;2023-05-10T10:30:24;6.0;;;6.0;;
21120;SDS011;12519;43.318;21.898;2023-05-10T10:35:17;5.0;;;5.0;;
21120;SDS011;12519;43.318;21.898;2023-05-10T10:39:55;5.0;;;5.0;;
21120;SDS011;12519;43.318;21.898;2023-05-10T10:44:36;5.0;;;5.0;;
21120;SDS011;12519;43.318;21.898;2023-05-10T10:49:14;5.0;;;5.0;;
21120;SDS011;12519;43.318;21.898;2023-05-10T10:53:51;5.0;;;5.0;;
21120;SDS011;12519;43.318;21.898;2023-05-10T10:58:30;5.0;;;5.0;;
21120;SDS011;12519;43.318;21.898;2023-05-10T11:03:11;6.0;;;5.0;;
21120;SDS011;12519;43.318;21.898;2023-05-10T11:07:53;6.0;;;5.0;;
21120;SDS011;12519;43.318;21.898;2023-05-10T11:12:51;6.0;;;5.0;;
21120;SDS011;12519;43.318;21.898;2023-05-10T11:17:38;6.0;;;5.0;;
21120;SDS011;12519;43.318;21.898;2023-05-10T11:22:15;7.0;;;5.0;;
21120;SDS011;12519;43.318;21.898;2023-05-10T11:26:53;7.0;;;5.0;;
21120;SDS011;12519;43.318;21.898;2023-05-10T11:31:32;8.0;;;5.0;;
21120;SDS011;12519;43.318;21.898;2023-05-10T11:36:19;8.0;;;5.0;;
21120;SDS011;12519;43.318;21.898;2023-05-10T11:41:04;8.0;;;5.0;;
21120;SDS011;12519;43.318;21.898;2023-05-10T11:45:45;10.0;;;6.0;;
21120;SDS011;12519;43.318;21.898;2023-05-10T11:50:22;10.0;;;6.0;;
21120;SDS011;12519;43.318;21.898;2023-05-10T11:54:59;12.0;;;6.0;;
21120;SDS011;12519;43.318;21.898;2023-05-10T11:59:36;12.0;;;6.0;;
21120;SDS011;12519;43.318;21.898;2023-05-10T12:04:13;10.0;;;6.0;;
21120;SDS011;12519;43.318;21.898;2023-05-10T12:08:50;10.0;;;6.0;;
21120;SDS011;12519;43.318;21.898;2023-05-10T12:13:26;8.0;;;7.0;;
21120;SDS011;12519;43.318;21.898;2023-05-10T12:18:04;8.0;;;7.0;;
21120;SDS011;12519;43.318;21.898;2023-05-10T12:22:46;10.0;;;7.0;;
21120;SDS011;12519;43.318;21.898;2023-05-10T12:27:31;10.0;;;7.0;;
21120;SDS011;12519;43.318;21.898;2023-05-10T12:32:08;11.0;;;7.0;;
21120;SDS011;12519;43.318;21.898;2023-05-10T12:36:45;11.0;;;7.0;;
21120;SDS011;12519;43.318;21.898;2023-05-10T12:41:28;8.0;;;6.0;;
21120;SDS011;12519;43.318;21.898;2023-05-10T12:46:06;8.0;;;6.0;;
21120;SDS011;12519;43.318;21.898;2023-05-10T12:50:49;8.0;;;6.0;;
21120;SDS011;12519;43.318;21.898;2023-05-10T12:55:27;6.0;;;6.0;;
21120;SDS011;12519;43.318;21.898;2023-05-10T13:00:05;6.0;;;6.0;;
21120;SDS011;12519;43.318;21.898;2023-05-10T13:04:47;8.0;;;6.0;;
21120;SDS011;12519;43.318;21.898;2023-05-10T13:09:26;8.0;;;6.0;;
21120;SDS011;12519;43.318;21.898;2023-05-10T13:14:03;9.0;;;7.0;;
21120;SDS011;12519;43.318;21.898;2023-05-10T13:18:39;9.0;;;7.0;;
21120;SDS011;12519;43.318;21.898;2023-05-10T13:23:16;8.0;;;7.0;;
21120;SDS011;12519;43.318;21.898;2023-05-10T13:27:52;8.0;;;7.0;;
21120;SDS011;12519;43.318;21.898;2023-05-10T13:32:28;8.0;;;7.0;;
21120;SDS011;12519;43.318;21.898;2023-05-10T13:37:05;8.0;;;7.0;;
21120;SDS011;12519;43.318;21.898;2023-05-10T13:41:42;10.0;;;7.0;;
21120;SDS011;12519;43.318;21.898;2023-05-10T13:46:19;10.0;;;7.0;;
21120;SDS011;12519;43.318;21.898;2023-05-10T13:50:55;10.0;;;7.0;;
21120;SDS011;12519;43.318;21.898;2023-05-10T13:55:32;11.0;;;7.0;;
21120;SDS011;12519;43.318;21.898;2023-05-10T14:00:10;11.0;;;7.0;;
21120;SDS011;12519;43.318;21.898;2023-05-10T14:04:51;8.0;;;6.0;;
21120;SDS011;12519;43.318;21.898;2023-05-10T14:09:27;8.0;;;6.0;;
21120;SDS011;12519;43.318;21.898;2023-05-10T14:14:04;6.0;;;6.0;;
21120;SDS011;12519;43.318;21.898;2023-05-10T14:18:41;6.0;;;6.0;;
21120;SDS011;12519;43.318;21.898;2023-05-10T14:23:18;8.0;;;8.0;;
21120;SDS011;12519;43.318;21.898;2023-05-10T14:27:55;8.0;;;8.0;;
21120;SDS011;12519;43.318;21.898;2023-05-10T14:32:31;9.0;;;9.0;;
21120;SDS011;12519;43.318;21.898;2023-05-10T14:37:10;9.0;;;9.0;;
21120;SDS011;12519;43.318;21.898;2023-05-10T14:41:49;10.0;;;8.0;;
21120;SDS011;12519;43.318;21.898;2023-05-10T14:46:26;10.0;;;8.0;;
21120;SDS011;12519;43.318;21.898;2023-05-10T14:51:03;10.0;;;8.0;;
21120;SDS011;12519;43.318;21.898;2023-05-10T14:55:39;10.0;;;6.0;;
21120;SDS011;12519;43.318;21.898;2023-05-10T15:00:17;10.0;;;6.0;;
21120;SDS011;12519;43.318;21.898;2023-05-10T15:04:57;10.0;;;7.0;;
21120;SDS011;12519;43.318;21.898;2023-05-10T15:09:34;10.0;;;7.0;;
21120;SDS011;12519;43.318;21.898;2023-05-10T15:14:10;10.0;;;8.0;;
21120;SDS011;12519;43.318;21.898;2023-05-10T15:18:48;10.0;;;8.0;;
21120;SDS011;12519;43.318;21.898;2023-05-10T15:23:24;9.0;;;8.0;;
21120;SDS011;12519;43.318;21.898;2023-05-10T15:28:01;9.0;;;8.0;;
21120;SDS011;12519;43.318;21.898;2023-05-10T15:32:40;8.0;;;8.0;;
21120;SDS011;12519;43.318;21.898;2023-05-10T15:37:16;8.0;;;8.0;;
21120;SDS011;12519;43.318;21.898;2023-05-10T15:41:53;9.0;;;8.0;;
21120;SDS011;12519;43.318;21.898;2023-05-10T15:46:30;9.0;;;8.0;;
21120;SDS011;12519;43.318;21.898;2023-05-10T15:51:06;9.0;;;8.0;;
21120;SDS011;12519;43.318;21.898;2023-05-10T15:55:43;10.0;;;9.0;;
21120;SDS011;12519;43.318;21.898;2023-05-10T16:00:19;10.0;;;9.0;;
21120;SDS011;12519;43.318;21.898;2023-05-10T16:04:56;11.0;;;9.0;;
21120;SDS011;12519;43.318;21.898;2023-05-10T16:09:32;11.0;;;9.0;;
21120;SDS011;12519;43.318;21.898;2023-05-10T16:14:08;12.0;;;9.0;;
21120;SDS011;12519;43.318;21.898;2023-05-10T16:18:45;12.0;;;9.0;;
21120;SDS011;12519;43.318;21.898;2023-05-10T16:23:21;10.0;;;8.0;;
21120;SDS011;12519;43.318;21.898;2023-05-10T16:27:59;10.0;;;8.0;;
21120;SDS011;12519;43.318;21.898;2023-05-10T16:32:36;9.0;;;8.0;;
21120;SDS011;12519;43.318;21.898;2023-05-10T16:37:13;9.0;;;8.0;;
21120;SDS011;12519;43.318;21.898;2023-05-10T16:41:50;9.0;;;8.0;;
21120;SDS011;12519;43.318;21.898;2023-05-10T16:46:27;10.0;;;8.0;;
21120;SDS011;12519;43.318;21.898;2023-05-10T16:51:04;10.0;;;8.0;;
21120;SDS011;12519;43.318;21.898;2023-05-10T16:55:41;12.0;;;9.0;;
21120;SDS011;12519;43.318;21.898;2023-05-10T17:00:18;12.0;;;9.0;;
21120;SDS011;12519;43.318;21.898;2023-05-10T17:04:55;10.0;;;8.0;;
21120;SDS011;12519;43.318;21.898;2023-05-10T17:09:32;10.0;;;8.0;;
21120;SDS011;12519;43.318;21.898;2023-05-10T17:14:09;9.0;;;8.0;;
21120;SDS011;12519;43.318;21.898;2023-05-10T17:18:46;9.0;;;8.0;;
21120;SDS011;12519;43.318;21.898;2023-05-10T17:23:23;10.0;;;8.0;;
21120;SDS011;12519;43.318;21.898;2023-05-10T17:27:59;10.0;;;8.0;;
21120;SDS011;12519;43.318;21.898;2023-05-10T17:32:35;10.0;;;7.0;;
21120;SDS011;12519;43.318;21.898;2023-05-10T17:37:12;10.0;;;7.0;;
21120;SDS011;12519;43.318;21.898;2023-05-10T17:41:48;10.0;;;7.0;;
21120;SDS011;12519;43.318;21.898;2023-05-10T17:46:24;10.0;;;8.0;;
21120;SDS011;12519;43.318;21.898;2023-05-10T17:51:01;10.0;;;8.0;;
21120;SDS011;12519;43.318;21.898;2023-05-10T17:55:40;9.0;;;9.0;;
21120;SDS011;12519;43.318;21.898;2023-05-10T18:00:18;9.0;;;9.0;;
21120;SDS011;12519;43.318;21.898;2023-05-10T18:04:56;9.0;;;8.0;;
21120;SDS011;12519;43.318;21.898;2023-05-10T18:09:32;9.0;;;8.0;;
21120;SDS011;12519;43.318;21.898;2023-05-10T18:14:09;9.0;;;8.0;;
21120;SDS011;12519;43.318;21.898;2023-05-10T18:18:46;9.0;;;8.0;;
21120;SDS011;12519;43.318;21.898;2023-05-10T18:23:23;8.0;;;8.0;;
21120;SDS011;12519;43.318;21.898;2023-05-10T18:28:00;8.0;;;8.0;;
21120;SDS011;12519;43.318;21.898;2023-05-10T18:32:36;8.0;;;7.0;;
21120;SDS011;12519;43.318;21.898;2023-05-10T18:37:12;8.0;;;7.0;;
21120;SDS011;12519;43.318;21.898;2023-05-10T18:41:49;8.0;;;7.0;;
21120;SDS011;12519;43.318;21.898;2023-05-10T18:46:25;8.0;;;8.0;;
21120;SDS011;12519;43.318;21.898;2023-05-10T18:51:02;8.0;;;8.0;;
21120;SDS011;12519;43.318;21.898;2023-05-10T18:55:38;9.0;;;8.0;;
21120;SDS011;12519;43.318;21.898;2023-05-10T19:00:15;9.0;;;8.0;;
21120;SDS011;12519;43.318;21.898;2023-05-10T19:04:51;9.0;;;8.0;;
21120;SDS011;12519;43.318;21.898;2023-05-10T19:09:28;9.0;;;8.0;;
21120;SDS011;12519;43.318;21.898;2023-05-10T19:14:04;9.0;;;8.0;;
21120;SDS011;12519;43.318;21.898;2023-05-10T19:18:41;9.0;;;8.0;;
21120;SDS011;12519;43.318;21.898;2023-05-10T19:23:19;8.0;;;8.0;;
21120;SDS011;12519;43.318;21.898;2023-05-10T19:27:55;8.0;;;8.0;;
21120;SDS011;12519;43.318;21.898;2023-05-10T19:32:33;8.0;;;8.0;;
21120;SDS011;12519;43.318;21.898;2023-05-10T19:37:10;8.0;;;8.0;;
21120;SDS011;12519;43.318;21.898;2023-05-10T19:41:46;8.0;;;8.0;;
21120;SDS011;12519;43.318;21.898;2023-05-10T19:46:23;8.0;;;8.0;;
21120;SDS011;12519;43.318;21.898;2023-05-10T19:51:02;8.0;;;8.0;;
21120;SDS011;12519;43.318;21.898;2023-05-10T19:55:40;9.0;;;8.0;;
21120;SDS011;12519;43.318;21.898;2023-05-10T20:00:17;9.0;;;8.0;;
21120;SDS011;12519;43.318;21.898;2023-05-10T20:04:54;8.0;;;8.0;;
21120;SDS011;12519;43.318;21.898;2023-05-10T20:09:30;8.0;;;8.0;;
21120;SDS011;12519;43.318;21.898;2023-05-10T20:14:07;8.0;;;7.0;;
21120;SDS011;12519;43.318;21.898;2023-05-10T20:18:44;8.0;;;7.0;;
21120;SDS011;12519;43.318;21.898;2023-05-10T20:23:21;8.0;;;7.0;;
21120;SDS011;12519;43.318;21.898;2023-05-10T20:27:58;8.0;;;7.0;;
21120;SDS011;12519;43.318;21.898;2023-05-10T20:32:36;8.0;;;7.0;;
21120;SDS011;12519;43.318;21.898;2023-05-10T20:37:14;8.0;;;7.0;;
21120;SDS011;12519;43.318;21.898;2023-05-10T20:41:50;8.0;;;7.0;;
21120;SDS011;12519;43.318;21.898;2023-05-10T20:46:27;10.0;;;8.0;;
21120;SDS011;12519;43.318;21.898;2023-05-10T20:51:04;10.0;;;8.0;;
21120;SDS011;12519;43.318;21.898;2023-05-10T20:55:41;11.0;;;9.0;;
21120;SDS011;12519;43.318;21.898;2023-05-10T21:00:19;11.0;;;9.0;;
21120;SDS011;12519;43.318;21.898;2023-05-10T21:04:57;9.0;;;8.0;;
21120;SDS011;12519;43.318;21.898;2023-05-10T21:09:34;9.0;;;8.0;;
21120;SDS011;12519;43.318;21.898;2023-05-10T21:14:10;7.0;;;7.0;;
21120;SDS011;12519;43.318;21.898;2023-05-10T21:18:47;7.0;;;7.0;;
21120;SDS011;12519;43.318;21.898;2023-05-10T21:23:24;8.0;;;7.0;;
21120;SDS011;12519;43.318;21.898;2023-05-10T21:28:01;8.0;;;7.0;;
21120;SDS011;12519;43.318;21.898;2023-05-10T21:32:37;8.0;;;7.0;;
21120;SDS011;12519;43.318;21.898;2023-05-10T21:37:14;8.0;;;7.0;;
21120;SDS011;12519;43.318;21.898;2023-05-10T21:41:51;8.0;;;7.0;;
21120;SDS011;12519;43.318;21.898;2023-05-10T21:46:28;8.0;;;7.0;;
21120;SDS011;12519;43.318;21.898;2023-05-10T21:51:06;8.0;;;7.0;;
21120;SDS011;12519;43.318;21.898;2023-05-10T21:55:42;8.0;;;7.0;;
21120;SDS011;12519;43.318;21.898;2023-05-10T22:00:19;8.0;;;7.0;;
21120;SDS011;12519;43.318;21.898;2023-05-10T22:04:56;8.0;;;7.0;;
21120;SDS011;12519;43.318;21.898;2023-05-10T22:09:33;8.0;;;7.0;;
21120;SDS011;12519;43.318;21.898;2023-05-10T22:14:10;7.0;;;7.0;;
21120;SDS011;12519;43.318;21.898;2023-05-10T22:18:46;7.0;;;7.0;;
21120;SDS011;12519;43.318;21.898;2023-05-10T22:23:23;8.0;;;7.0;;
21120;SDS011;12519;43.318;21.898;2023-05-10T22:28:00;8.0;;;7.0;;
21120;SDS011;12519;43.318;21.898;2023-05-10T22:32:37;8.0;;;7.0;;
21120;SDS011;12519;43.318;21.898;2023-05-10T22:37:15;8.0;;;7.0;;
21120;SDS011;12519;43.318;21.898;2023-05-10T22:41:51;8.0;;;7.0;;
21120;SDS011;12519;43.318;21.898;2023-05-10T22:46:30;8.0;;;6.0;;
21120;SDS011;12519;43.318;21.898;2023-05-10T22:51:07;8.0;;;6.0;;
21120;SDS011;12519;43.318;21.898;2023-05-10T22:55:44;7.0;;;6.0;;
21120;SDS011;12519;43.318;21.898;2023-05-10T23:00:21;7.0;;;6.0;;
21120;SDS011;12519;43.318;21.898;2023-05-10T23:04:58;8.0;;;6.0;;
21120;SDS011;12519;43.318;21.898;2023-05-10T23:09:35;8.0;;;6.0;;
21120;SDS011;12519;43.318;21.898;2023-05-10T23:14:12;8.0;;;7.0;;
21120;SDS011;12519;43.318;21.898;2023-05-10T23:18:49;8.0;;;7.0;;
21120;SDS011;12519;43.318;21.898;2023-05-10T23:23:26;8.0;;;6.0;;
21120;SDS011;12519;43.318;21.898;2023-05-10T23:28:03;8.0;;;6.0;;
21120;SDS011;12519;43.318;21.898;2023-05-10T23:32:40;7.0;;;6.0;;
21120;SDS011;12519;43.318;21.898;2023-05-10T23:37:17;7.0;;;6.0;;
21120;SDS011;12519;43.318;21.898;2023-05-10T23:41:54;7.0;;;6.0;;
21120;SDS011;12519;43.318;21.898;2023-05-10T23:46:31;7.0;;;6.0;;
21120;SDS011;12519;43.318;21.898;2023-05-10T23:51:08;7.0;;;6.0;;
